GXMF CLC2-ZZZZ
Flight info
| Callsign | GXMF |
|---|---|
| Flight time | N/A |
| Altitude | 1500 |
| Route | VFR |
| Aircraft | GLID |
Departure
| Time | 2026-04-29 23:35 |
|---|---|
| Airport | Chapeskie Field Airport (CLC2) |
Arrival
| Time | N/A |
|---|---|
| Airport | ZZZZ |
| Time | Latitude | Longitude | Altitude | Speed | Heading |
|---|---|---|---|---|---|
| 2026-04-29 23:27 | 43.06912 | -81.12304 | 928 ft | 0 kts | 248° |
| 2026-04-29 23:30 | 43.06911 | -81.12306 | 931 ft | 0 kts | 248° |
| 2026-04-29 23:33 | 0.00551 | -0.02184 | 397 ft | 1873 kts | 293° |
| 2026-04-29 23:33 | 0.05182 | -0.18173 | 1045 ft | 2581 kts | 205° |
| 2026-04-29 23:34 | 43.06911 | -81.12306 | 931 ft | 0 kts | 248° |
| 2026-04-29 23:35 | 43.06911 | -81.12307 | 931 ft | 4 kts | 248° |
| 2026-04-29 23:35 | 43.06744 | -81.12771 | 1399 ft | 77 kts | 250° |
| 2026-04-29 23:35 | 43.06535 | -81.13240 | 1569 ft | 54 kts | 242° |
| 2026-04-29 23:36 | 43.06384 | -81.13686 | 1547 ft | 50 kts | 274° |
| 2026-04-29 23:36 | 43.06245 | -81.14253 | 1519 ft | 49 kts | 258° |
| 2026-04-29 23:36 | 43.06152 | -81.14538 | 1543 ft | 49 kts | 250° |
| 2026-04-29 23:36 | 43.06055 | -81.14971 | 1572 ft | 48 kts | 281° |
| 2026-04-29 23:37 | 43.05974 | -81.15427 | 1601 ft | 49 kts | 262° |
| 2026-04-29 23:37 | 43.05844 | -81.15888 | 1641 ft | 58 kts | 266° |
| 2026-04-29 23:37 | 43.05706 | -81.16505 | 1737 ft | 66 kts | 261° |
| 2026-04-29 23:37 | 43.05548 | -81.17119 | 1857 ft | 69 kts | 259° |
| 2026-04-29 23:38 | 43.05399 | -81.17697 | 2040 ft | 59 kts | 262° |
| 2026-04-29 23:38 | 43.05244 | -81.18254 | 2117 ft | 63 kts | 258° |
| 2026-04-29 23:38 | 43.05069 | -81.18789 | 2193 ft | 58 kts | 247° |
| 2026-04-29 23:38 | 43.04963 | -81.19167 | 2592 ft | 21 kts | 264° |
| 2026-04-29 23:39 | 43.04904 | -81.19447 | 2607 ft | 64 kts | 267° |
| 2026-04-29 23:39 | 43.04836 | -81.20098 | 2623 ft | 77 kts | 275° |
| 2026-04-29 23:39 | 43.04709 | -81.20806 | 2753 ft | 75 kts | 259° |
| 2026-04-29 23:39 | 43.04563 | -81.21441 | 2881 ft | 55 kts | 265° |
| 2026-04-29 23:40 | 43.04550 | -81.21768 | 3275 ft | 23 kts | 270° |
| 2026-04-29 23:40 | 43.04479 | -81.21944 | 3389 ft | 55 kts | 216° |
| 2026-04-29 23:40 | 43.04049 | -81.21139 | 3414 ft | 113 kts | 158° |
| 2026-04-29 23:40 | 43.03324 | -81.20926 | 3039 ft | 71 kts | 252° |
| 2026-04-29 23:41 | 43.03162 | -81.21423 | 3351 ft | 47 kts | 263° |
| 2026-04-29 23:41 | 43.03155 | -81.21781 | 3671 ft | 35 kts | 279° |
| 2026-04-29 23:41 | 43.03190 | -81.22257 | 3086 ft | 95 kts | 282° |
| 2026-04-29 23:41 | 43.03336 | -81.23568 | 2609 ft | 135 kts | 349° |
| 2026-04-29 23:42 | 43.03218 | -81.22825 | 3067 ft | 117 kts | 166° |
| 2026-04-29 23:42 | 43.02222 | -81.22492 | 2300 ft | 164 kts | 164° |
| 2026-04-29 23:42 | 43.01232 | -81.22189 | 2586 ft | 132 kts | 159° |
| 2026-04-29 23:42 | 43.00438 | -81.21850 | 2837 ft | 107 kts | 161° |
| 2026-04-29 23:43 | 42.99777 | -81.21524 | 2773 ft | 92 kts | 150° |
| 2026-04-29 23:43 | 42.98971 | -81.20769 | 2329 ft | 141 kts | 129° |
| 2026-04-29 23:43 | 42.98374 | -81.19818 | 1531 ft | 167 kts | 115° |
| 2026-04-29 23:43 | 42.97831 | -81.18337 | 1443 ft | 149 kts | 116° |
| 2026-04-29 23:44 | 42.97440 | -81.17290 | 1797 ft | 104 kts | 111° |
| 2026-04-29 23:44 | 42.97192 | -81.16522 | 2006 ft | 80 kts | 90° |
| 2026-04-29 23:44 | 42.96851 | -81.16110 | 2038 ft | 98 kts | 238° |
| 2026-04-29 23:44 | 42.96949 | -81.16845 | 2163 ft | 77 kts | 298° |
| 2026-04-29 23:45 | 42.97180 | -81.17181 | 2524 ft | 45 kts | 292° |
| 2026-04-29 23:45 | 42.97212 | -81.17318 | 2833 ft | 11 kts | 267° |
| 2026-04-29 23:45 | 42.97208 | -81.17320 | 3146 ft | 19 kts | 274° |
| 2026-04-29 23:45 | 42.97289 | -81.16676 | 4216 ft | 106 kts | 277° |
| 2026-04-29 23:46 | 42.97583 | -81.15532 | 4406 ft | 205 kts | 337° |
| 2026-04-29 23:46 | 42.98139 | -81.13138 | 4652 ft | 305 kts | 54° |
| 2026-04-29 23:46 | 42.98483 | -81.10342 | 4809 ft | 299 kts | 9° |
| 2026-04-29 23:46 | 42.98838 | -81.07424 | 4889 ft | 313 kts | 80° |
| 2026-04-29 23:47 | 42.98888 | -81.04745 | 5731 ft | 239 kts | 89° |
| 2026-04-29 23:47 | 42.98857 | -81.02750 | 6444 ft | 179 kts | 119° |
| 2026-04-29 23:47 | 42.98388 | -81.02367 | 6773 ft | 26 kts | 264° |
| 2026-04-29 23:47 | 42.98411 | -81.02408 | 7193 ft | 21 kts | 275° |
| 2026-04-29 23:48 | 42.98437 | -81.02114 | 7412 ft | 36 kts | 268° |
| 2026-04-29 23:48 | 42.98364 | -81.01846 | 7409 ft | 24 kts | 261° |
| 2026-04-29 23:48 | 42.98171 | -81.01279 | 8277 ft | 194 kts | 60° |
| 2026-04-29 23:48 | 42.98199 | -81.00686 | 8635 ft | 33 kts | 30° |
| 2026-04-29 23:49 | 42.98183 | -81.00484 | 8884 ft | 52 kts | 68° |
| 2026-04-29 23:49 | 42.97910 | -81.00566 | 8610 ft | 113 kts | 255° |
| 2026-04-29 23:49 | 42.97709 | -81.01331 | 9142 ft | 67 kts | 253° |
| 2026-04-29 23:49 | 42.97590 | -81.01878 | 9354 ft | 54 kts | 259° |
| 2026-04-29 23:50 | 42.97525 | -81.02403 | 9417 ft | 59 kts | 261° |
| 2026-04-29 23:50 | 42.97493 | -81.02693 | 9443 ft | 62 kts | 263° |
| 2026-04-29 23:50 | 42.97485 | -81.03357 | 9558 ft | 64 kts | 273° |
| 2026-04-29 23:51 | 42.97556 | -81.03948 | 9694 ft | 61 kts | 278° |
| 2026-04-29 23:51 | 42.97671 | -81.04523 | 9763 ft | 66 kts | 284° |
| 2026-04-29 23:51 | 42.97912 | -81.05047 | 9892 ft | 69 kts | 315° |
| 2026-04-29 23:51 | 42.98321 | -81.05387 | 10015 ft | 63 kts | 307° |
| 2026-04-29 23:52 | 42.98472 | -81.05822 | 10139 ft | 49 kts | 261° |
| 2026-04-29 23:52 | 42.98372 | -81.06298 | 10203 ft | 53 kts | 273° |
| 2026-04-29 23:52 | 42.98609 | -81.06733 | 10286 ft | 65 kts | 314° |
| 2026-04-29 23:52 | 42.99044 | -81.06844 | 10449 ft | 65 kts | 352° |
| 2026-04-29 23:53 | 42.99519 | -81.06560 | 10472 ft | 81 kts | 18° |
| 2026-04-29 23:53 | 43.00018 | -81.06132 | 10523 ft | 90 kts | 25° |
| 2026-04-29 23:53 | 43.00307 | -81.05397 | 10598 ft | 96 kts | 114° |
| 2026-04-29 23:53 | 43.00152 | -81.05562 | 10657 ft | 76 kts | 335° |
| 2026-04-29 23:54 | 43.00271 | -81.05022 | 10805 ft | 70 kts | 183° |
| 2026-04-29 23:54 | 42.99995 | -81.05368 | 10800 ft | 62 kts | 247° |
| 2026-04-29 23:54 | 42.99819 | -81.05771 | 11056 ft | 31 kts | 248° |
| 2026-04-29 23:54 | 42.99693 | -81.06113 | 10356 ft | 101 kts | 255° |
| 2026-04-29 23:55 | 42.99778 | -81.06626 | 9301 ft | 49 kts | 326° |
| 2026-04-29 23:55 | 43.00213 | -81.06038 | 6965 ft | 117 kts | 43° |
| 2026-04-29 23:55 | 43.01175 | -81.05165 | 5372 ft | 205 kts | 301° |
| 2026-04-29 23:55 | 43.00843 | -81.06514 | 5271 ft | 171 kts | 343° |
| 2026-04-29 23:56 | 43.02029 | -81.06665 | 5391 ft | 154 kts | 353° |
| 2026-04-29 23:56 | 43.03018 | -81.06802 | 5608 ft | 117 kts | 347° |
| 2026-04-29 23:56 | 43.03111 | -81.06740 | 5674 ft | 56 kts | 54° |
| 2026-04-29 23:56 | 43.02706 | -81.05271 | 4934 ft | 179 kts | 115° |
| 2026-04-29 23:57 | 43.03226 | -81.04803 | 5094 ft | 135 kts | 293° |
| 2026-04-29 23:57 | 43.03615 | -81.05781 | 5345 ft | 111 kts | 305° |
| 2026-04-29 23:57 | 43.04041 | -81.06600 | 5581 ft | 93 kts | 308° |
| 2026-04-29 23:57 | 43.04611 | -81.06687 | 5576 ft | 118 kts | 58° |
| 2026-04-29 23:58 | 43.04152 | -81.06042 | 5812 ft | 104 kts | 216° |
| 2026-04-29 23:58 | 43.04303 | -81.06630 | 5858 ft | 102 kts | 6° |
| 2026-04-29 23:58 | 43.04367 | -81.05796 | 6006 ft | 118 kts | 149° |
| 2026-04-29 23:58 | 43.03587 | -81.05048 | 4684 ft | 196 kts | 196° |
| 2026-04-29 23:59 | 43.03485 | -81.06636 | 4231 ft | 176 kts | 287° |
| 2026-04-29 23:59 | 43.03910 | -81.08141 | 4023 ft | 156 kts | 313° |
| 2026-04-29 23:59 | 43.04597 | -81.09095 | 4122 ft | 141 kts | 314° |
| 2026-04-29 23:59 | 43.04669 | -81.10447 | 3600 ft | 106 kts | 260° |
| 2026-04-30 00:00 | 43.04490 | -81.11219 | 2494 ft | 79 kts | 256° |
| 2026-04-30 00:00 | 43.04407 | -81.11849 | 2072 ft | 65 kts | 268° |
| 2026-04-30 00:00 | 43.04295 | -81.12604 | 1709 ft | 76 kts | 261° |
| 2026-04-30 00:00 | 43.04227 | -81.13255 | 1337 ft | 63 kts | 263° |
| 2026-04-30 00:01 | 43.04149 | -81.13857 | 964 ft | 57 kts | 278° |
| 2026-04-30 00:01 | 43.04093 | -81.14296 | 901 ft | 39 kts | 265° |
| 2026-04-30 00:01 | 43.04045 | -81.14593 | 899 ft | 27 kts | 262° |
| 2026-04-30 00:01 | 43.04015 | -81.14856 | 900 ft | 30 kts | 258° |
| 2026-04-30 00:02 | 43.03978 | -81.15130 | 902 ft | 28 kts | 258° |
| 2026-04-30 00:02 | 43.03950 | -81.15370 | 903 ft | 27 kts | 258° |
| 2026-04-30 00:02 | 43.03896 | -81.15670 | 900 ft | 34 kts | 275° |